Time;durP1;ratioP1;P1;durP2;ratioP2;P2;SDS_P1;SDS_P2;PMS_P1;PMS_P2;Temp;Humidity;BMP_temperature;BMP_pressure;BME280_temperature;BME280_humidity;BME280_pressure;Samples;Min_cycle;Max_cycle;Signal;HPM_P1;HPM_P2
2023/05/12 00:00:43;;;;;;;;;;;12.20;99.90;;;;;;5095164;28;19987;-38
2023/05/12 00:03:11;;;;;;;;;;;12.20;99.90;;;;;;5126649;27;20383;-38
2023/05/12 00:05:38;;;;;;;;;;;12.20;99.90;;;;;;5095701;28;19940;-38
2023/05/12 00:08:05;;;;;;;;;;;12.20;99.90;;;;;;5086937;28;20005;-37
2023/05/12 00:10:31;;;;;;;;;;;12.30;99.90;;;;;;5103552;28;19947;-39
2023/05/12 00:12:59;;;;;;;;;;;12.20;99.90;;;;;;5096761;28;20016;-40
2023/05/12 00:15:25;;;;;;;;;;;12.20;99.90;;;;;;5085124;28;19942;-38
2023/05/12 00:17:52;;;;;;;;;;;12.20;99.90;;;;;;5115137;28;19995;-39
2023/05/12 00:20:20;;;;;;;;;;;12.30;99.90;;;;;;5098921;28;20024;-38
2023/05/12 00:22:46;;;;;;;;;;;12.20;99.90;;;;;;5077284;28;20436;-39
2023/05/12 00:25:13;;;;;;;;;;;12.20;99.90;;;;;;5102425;28;19941;-38
2023/05/12 00:27:40;;;;;;;;;;;12.20;99.90;;;;;;5113478;28;19942;-37
2023/05/12 00:30:07;;;;;;;;;;;12.20;99.90;;;;;;5080339;28;19986;-37
2023/05/12 00:32:33;;;;;;;;;;;12.20;99.90;;;;;;5080070;28;20343;-38
2023/05/12 00:35:00;;;;;;;;;;;12.20;99.90;;;;;;5077210;28;19957;-37
2023/05/12 00:37:28;;;;;;;;;;;12.20;99.90;;;;;;5094343;27;19992;-37
2023/05/12 00:39:55;;;;;;;;;;;12.20;99.90;;;;;;5104041;28;19954;-37
2023/05/12 00:42:21;;;;;;;;;;;12.20;99.90;;;;;;5094877;28;19971;-37
2023/05/12 00:44:48;;;;;;;;;;;12.20;99.90;;;;;;5094343;28;20347;-36
2023/05/12 00:47:15;;;;;;;;;;;12.20;99.90;;;;;;5094668;28;19947;-37
2023/05/12 00:49:42;;;;;;;;;;;12.20;99.90;;;;;;5106063;27;19936;-36
2023/05/12 00:52:08;;;;;;;;;;;12.20;99.90;;;;;;5094690;28;20024;-37
2023/05/12 00:54:37;;;;;;;;;;;12.20;99.90;;;;;;5080838;28;19960;-37
2023/05/12 00:57:03;;;;;;;;;;;12.20;99.90;;;;;;5082687;28;20391;-37
2023/05/12 00:59:30;;;;;;;;;;;12.20;99.90;;;;;;5096358;27;20382;-37
2023/05/12 01:01:57;;;;;;;;;;;12.20;99.90;;;;;;5097185;27;20385;-37
2023/05/12 01:04:23;;;;;;;;;;;12.20;99.90;;;;;;5112060;28;19981;-37
2023/05/12 01:06:53;;;;;;;;;;;12.20;99.90;;;;;;5105900;27;20401;-37
2023/05/12 01:09:20;;;;;;;;;;;12.20;99.90;;;;;;5097735;28;19996;-36
2023/05/12 01:11:48;;;;;;;;;;;12.20;99.90;;;;;;5076174;28;19997;-36
2023/05/12 01:14:14;;;;;;;;;;;12.20;99.90;;;;;;5080175;28;20018;-37
2023/05/12 01:16:48;;;;;;;;;;;12.20;99.90;;;;;;5098703;28;19941;-37
2023/05/12 01:19:17;;;;;;;;;;;12.20;99.90;;;;;;5099683;28;20030;-37
2023/05/12 01:21:44;;;;;;;;;;;12.20;99.90;;;;;;5102023;28;19980;-37
2023/05/12 01:24:10;;;;;;;;;;;12.20;99.90;;;;;;5095930;28;19949;-37
2023/05/12 01:26:38;;;;;;;;;;;12.20;99.90;;;;;;5095852;27;19993;-37
2023/05/12 01:29:05;;;;;;;;;;;12.20;99.90;;;;;;5093320;28;20044;-36
2023/05/12 01:31:32;;;;;;;;;;;12.20;99.90;;;;;;5125915;27;20046;-36
2023/05/12 01:33:58;;;;;;;;;;;12.20;99.90;;;;;;5078561;28;20004;-37
2023/05/12 01:36:25;;;;;;;;;;;12.20;99.90;;;;;;5075321;28;20040;-36
2023/05/12 01:38:52;;;;;;;;;;;12.20;99.90;;;;;;5084195;28;20425;-37
2023/05/12 01:41:18;;;;;;;;;;;12.20;99.90;;;;;;5075135;28;20379;-36
2023/05/12 01:43:46;;;;;;;;;;;12.20;99.90;;;;;;5095166;28;20411;-36
2023/05/12 01:46:13;;;;;;;;;;;12.20;99.90;;;;;;5079405;28;20371;-37
2023/05/12 01:48:40;;;;;;;;;;;12.20;99.90;;;;;;5089828;28;20517;-37
2023/05/12 01:51:07;;;;;;;;;;;12.20;99.90;;;;;;5082478;28;19943;-36
2023/05/12 01:53:33;;;;;;;;;;;12.20;99.90;;;;;;5093748;28;20051;-36
2023/05/12 01:56:00;;;;;;;;;;;12.20;99.90;;;;;;5094963;28;20589;-36
2023/05/12 01:58:27;;;;;;;;;;;12.20;99.90;;;;;;5078335;28;20354;-36
2023/05/12 02:00:55;;;;;;;;;;;12.20;99.90;;;;;;5098032;28;19982;-37
2023/05/12 02:03:21;;;;;;;;;;;12.20;99.90;;;;;;5105283;27;19958;-36
2023/05/12 02:05:48;;;;;;;;;;;12.20;99.90;;;;;;5092665;28;19989;-36
2023/05/12 02:08:15;;;;;;;;;;;12.20;99.90;;;;;;5075115;28;19948;-37
2023/05/12 02:10:41;;;;;;;;;;;12.20;99.90;;;;;;5092643;28;20475;-36
2023/05/12 02:13:08;;;;;;;;;;;12.20;99.90;;;;;;5074545;28;20023;-36
2023/05/12 02:15:34;;;;;;;;;;;12.30;99.90;;;;;;5093283;28;20031;-36
2023/05/12 02:18:03;;;;;;;;;;;12.30;99.90;;;;;;5074952;28;19943;-37
2023/05/12 02:20:29;;;;;;;;;;;12.30;99.90;;;;;;5092893;28;20124;-37
2023/05/12 02:22:56;;;;;;;;;;;12.30;99.90;;;;;;5092980;28;19940;-37
2023/05/12 02:25:23;;;;;;;;;;;12.30;99.90;;;;;;5100096;28;19975;-36
2023/05/12 02:27:49;;;;;;;;;;;12.30;99.90;;;;;;5092109;28;19949;-35
2023/05/12 02:30:16;;;;;;;;;;;12.30;99.90;;;;;;5092925;28;20543;-36
2023/05/12 02:32:43;;;;;;;;;;;12.30;99.90;;;;;;5092679;28;19988;-36
2023/05/12 02:35:11;;;;;;;;;;;12.30;99.90;;;;;;5074905;28;20003;-36
2023/05/12 02:37:38;;;;;;;;;;;12.40;99.90;;;;;;5095303;27;19977;-36
2023/05/12 02:40:05;;;;;;;;;;;12.40;99.90;;;;;;5107590;28;19948;-36
2023/05/12 02:42:34;;;;;;;;;;;12.40;99.90;;;;;;5074489;28;20039;-36
2023/05/12 02:45:00;;;;;;;;;;;12.40;99.90;;;;;;5081006;28;20276;-36
2023/05/12 02:47:30;;;;;;;;;;;12.40;99.90;;;;;;5110820;28;19998;-36
2023/05/12 02:49:56;;;;;;;;;;;12.40;99.90;;;;;;5090993;28;19948;-36
2023/05/12 02:52:24;;;;;;;;;;;12.40;99.90;;;;;;5093541;28;19936;-36
2023/05/12 02:54:51;;;;;;;;;;;12.40;99.90;;;;;;5092161;28;20053;-36
2023/05/12 02:57:18;;;;;;;;;;;12.40;99.90;;;;;;5099886;28;20312;-36
2023/05/12 02:59:44;;;;;;;;;;;12.40;99.90;;;;;;5092235;28;20021;-36
2023/05/12 03:02:11;;;;;;;;;;;12.50;99.90;;;;;;5092412;28;19973;-37
2023/05/12 03:04:38;;;;;;;;;;;12.50;99.90;;;;;;5092388;28;19989;-36
2023/05/12 03:07:04;;;;;;;;;;;12.50;99.90;;;;;;5073924;28;19997;-36
2023/05/12 03:09:32;;;;;;;;;;;12.50;99.90;;;;;;5096903;28;19936;-36
2023/05/12 03:11:59;;;;;;;;;;;12.40;99.90;;;;;;5108514;28;19936;-36
2023/05/12 03:14:27;;;;;;;;;;;12.40;99.90;;;;;;5107793;28;19955;-37
2023/05/12 03:16:54;;;;;;;;;;;12.40;99.90;;;;;;5112182;27;19950;-36
2023/05/12 03:19:20;;;;;;;;;;;12.50;99.90;;;;;;5080182;28;19975;-36
2023/05/12 03:21:47;;;;;;;;;;;12.40;99.90;;;;;;5100089;27;19935;-36
2023/05/12 03:24:13;;;;;;;;;;;12.50;99.90;;;;;;5112441;27;19947;-35
2023/05/12 03:26:41;;;;;;;;;;;12.50;99.90;;;;;;5101989;28;20325;-37
2023/05/12 03:29:08;;;;;;;;;;;12.50;99.90;;;;;;5077689;28;19990;-37
2023/05/12 03:31:35;;;;;;;;;;;12.50;99.90;;;;;;5089509;28;19985;-36
2023/05/12 03:34:01;;;;;;;;;;;12.40;99.90;;;;;;5098599;27;19958;-37
2023/05/12 03:36:28;;;;;;;;;;;12.40;99.90;;;;;;5084333;28;20401;-36
2023/05/12 03:38:55;;;;;;;;;;;12.40;99.90;;;;;;5095813;28;19985;-36
2023/05/12 03:41:21;;;;;;;;;;;12.40;99.90;;;;;;5077105;28;20057;-37
2023/05/12 03:43:50;;;;;;;;;;;12.40;99.90;;;;;;5103404;27;19945;-36
2023/05/12 03:46:16;;;;;;;;;;;12.50;99.90;;;;;;5099166;27;20034;-36
2023/05/12 03:48:43;;;;;;;;;;;12.50;99.90;;;;;;5091133;28;20401;-36
2023/05/12 03:51:09;;;;;;;;;;;12.40;99.90;;;;;;5095079;28;19942;-37
2023/05/12 03:53:36;;;;;;;;;;;12.50;99.90;;;;;;5111995;28;20374;-37
2023/05/12 03:56:06;;;;;;;;;;;12.50;99.90;;;;;;5098147;28;19997;-36
2023/05/12 03:58:33;;;;;;;;;;;12.50;99.90;;;;;;5111001;27;20403;-36
2023/05/12 04:01:01;;;;;;;;;;;12.50;99.90;;;;;;5095356;28;19949;-36
2023/05/12 04:03:28;;;;;;;;;;;12.50;99.90;;;;;;5095701;28;20513;-37
2023/05/12 04:05:57;;;;;;;;;;;12.50;99.90;;;;;;5077758;28;19989;-36
2023/05/12 04:08:24;;;;;;;;;;;12.50;99.90;;;;;;5094995;28;20328;-36
2023/05/12 04:10:51;;;;;;;;;;;12.50;99.90;;;;;;5108354;27;19950;-37
2023/05/12 04:13:17;;;;;;;;;;;12.50;99.90;;;;;;5097195;28;20003;-37
2023/05/12 04:15:44;;;;;;;;;;;12.50;99.90;;;;;;5083643;28;19955;-37
2023/05/12 04:18:12;;;;;;;;;;;12.50;99.90;;;;;;5077205;28;19943;-37
2023/05/12 04:20:39;;;;;;;;;;;12.50;99.90;;;;;;5124833;27;20025;-37
2023/05/12 04:23:06;;;;;;;;;;;12.50;99.90;;;;;;5100569;28;19956;-36
2023/05/12 04:25:32;;;;;;;;;;;12.60;99.90;;;;;;5097409;28;19951;-37
2023/05/12 04:28:02;;;;;;;;;;;12.60;99.90;;;;;;5094227;28;20424;-37
2023/05/12 04:30:29;;;;;;;;;;;12.60;99.90;;;;;;5110607;28;19983;-36
2023/05/12 04:32:55;;;;;;;;;;;12.60;99.90;;;;;;5101632;28;19986;-36
2023/05/12 04:35:23;;;;;;;;;;;12.60;99.90;;;;;;5098924;28;19999;-37
2023/05/12 04:37:50;;;;;;;;;;;12.60;99.90;;;;;;5076839;28;19956;-37
2023/05/12 04:40:17;;;;;;;;;;;12.60;99.90;;;;;;5100442;28;19980;-37
2023/05/12 04:42:43;;;;;;;;;;;12.60;99.90;;;;;;5076581;28;20014;-36
2023/05/12 04:45:10;;;;;;;;;;;12.70;99.90;;;;;;5094939;28;19953;-36
2023/05/12 04:47:37;;;;;;;;;;;12.60;99.90;;;;;;5106917;28;19969;-37
2023/05/12 04:50:04;;;;;;;;;;;12.70;99.90;;;;;;5104824;27;20003;-36
2023/05/12 04:52:32;;;;;;;;;;;12.70;99.90;;;;;;5096950;28;20089;-37
2023/05/12 04:54:59;;;;;;;;;;;12.70;99.90;;;;;;5092625;27;19964;-37
2023/05/12 04:57:25;;;;;;;;;;;12.70;99.90;;;;;;5106314;28;20402;-37
2023/05/12 04:59:52;;;;;;;;;;;12.80;99.90;;;;;;5108974;28;19940;-36
2023/05/12 05:02:19;;;;;;;;;;;12.70;99.90;;;;;;5105422;28;20317;-37
2023/05/12 05:04:45;;;;;;;;;;;12.80;99.90;;;;;;5090549;28;19938;-37
2023/05/12 05:07:12;;;;;;;;;;;12.80;99.90;;;;;;5095804;28;20289;-36
2023/05/12 05:09:40;;;;;;;;;;;12.80;99.90;;;;;;5104490;28;20998;-36
2023/05/12 05:12:07;;;;;;;;;;;12.80;99.90;;;;;;5079443;28;19990;-36
2023/05/12 05:14:34;;;;;;;;;;;12.80;99.90;;;;;;5090447;28;20064;-36
2023/05/12 05:17:01;;;;;;;;;;;12.80;99.90;;;;;;5084642;28;19944;-37
2023/05/12 05:19:27;;;;;;;;;;;12.80;99.90;;;;;;5085754;28;20388;-37
2023/05/12 05:21:54;;;;;;;;;;;12.80;99.90;;;;;;5103610;28;20399;-36
2023/05/12 05:24:21;;;;;;;;;;;12.80;99.90;;;;;;5090895;28;19945;-36
2023/05/12 05:26:49;;;;;;;;;;;12.80;99.90;;;;;;5106041;28;20355;-37
2023/05/12 05:29:15;;;;;;;;;;;12.80;99.90;;;;;;5106568;28;20397;-37
2023/05/12 05:31:43;;;;;;;;;;;12.90;99.90;;;;;;5104080;28;19991;-36
2023/05/12 05:34:09;;;;;;;;;;;12.80;99.90;;;;;;5088924;28;19965;-37
2023/05/12 05:36:36;;;;;;;;;;;13.00;99.90;;;;;;5098687;28;19936;-36
2023/05/12 05:39:03;;;;;;;;;;;12.90;99.90;;;;;;5101883;28;19938;-36
2023/05/12 05:41:30;;;;;;;;;;;12.90;99.90;;;;;;5103351;27;19963;-36
2023/05/12 05:43:58;;;;;;;;;;;13.00;99.90;;;;;;5103695;28;19940;-36
2023/05/12 05:46:25;;;;;;;;;;;13.00;99.90;;;;;;5094990;27;19978;-37
2023/05/12 05:48:51;;;;;;;;;;;13.00;99.90;;;;;;5096011;27;19999;-35
2023/05/12 05:51:18;;;;;;;;;;;13.00;99.90;;;;;;5099254;28;20001;-36
2023/05/12 05:53:45;;;;;;;;;;;13.00;99.90;;;;;;5101105;28;19947;-36
2023/05/12 05:56:11;;;;;;;;;;;13.00;99.90;;;;;;5098622;28;20508;-36
2023/05/12 05:58:38;;;;;;;;;;;13.00;99.90;;;;;;5073703;28;20039;-36
2023/05/12 06:01:06;;;;;;;;;;;13.00;99.90;;;;;;5086612;28;19954;-36
2023/05/12 06:03:33;;;;;;;;;;;13.10;99.90;;;;;;5101473;28;20014;-37
2023/05/12 06:05:59;;;;;;;;;;;13.10;99.90;;;;;;5100797;28;19939;-37
2023/05/12 06:08:26;;;;;;;;;;;13.10;99.90;;;;;;5100774;28;19943;-36
2023/05/12 06:10:53;;;;;;;;;;;13.10;99.90;;;;;;5078114;28;20041;-36
2023/05/12 06:13:19;;;;;;;;;;;13.10;99.90;;;;;;5101204;28;19955;-36
2023/05/12 06:15:46;;;;;;;;;;;13.10;99.90;;;;;;5102016;27;19958;-37
2023/05/12 06:18:15;;;;;;;;;;;13.10;99.90;;;;;;5106664;28;19993;-36
2023/05/12 06:20:42;;;;;;;;;;;13.10;99.90;;;;;;5103800;27;19945;-36
2023/05/12 06:23:08;;;;;;;;;;;13.20;99.90;;;;;;5105692;28;19947;-37
2023/05/12 06:25:35;;;;;;;;;;;13.20;99.90;;;;;;5098828;28;20422;-36
2023/05/12 06:28:02;;;;;;;;;;;13.20;99.90;;;;;;5081527;28;20034;-36
2023/05/12 06:30:28;;;;;;;;;;;13.20;99.90;;;;;;5106677;27;19936;-36
2023/05/12 06:32:55;;;;;;;;;;;13.30;99.90;;;;;;5082558;28;19944;-36
2023/05/12 06:35:23;;;;;;;;;;;13.30;99.90;;;;;;5099929;28;19956;-37
2023/05/12 06:37:50;;;;;;;;;;;13.30;99.90;;;;;;5088378;27;20459;-36
2023/05/12 06:40:16;;;;;;;;;;;13.30;99.90;;;;;;5086628;28;20023;-36
2023/05/12 06:42:43;;;;;;;;;;;13.40;99.90;;;;;;5109563;27;20407;-36
2023/05/12 06:45:11;;;;;;;;;;;13.40;99.90;;;;;;5081522;28;19948;-35
2023/05/12 06:47:38;;;;;;;;;;;13.40;99.90;;;;;;5103660;28;19943;-36
2023/05/12 06:50:05;;;;;;;;;;;13.40;99.90;;;;;;5082115;28;19938;-36
2023/05/12 06:52:33;;;;;;;;;;;13.40;99.90;;;;;;5099425;28;19966;-36
2023/05/12 06:55:00;;;;;;;;;;;13.40;99.90;;;;;;5079025;28;20013;-36
2023/05/12 06:57:27;;;;;;;;;;;13.40;99.90;;;;;;5097730;28;20079;-36
2023/05/12 06:59:53;;;;;;;;;;;13.50;99.90;;;;;;5089906;28;19985;-37
2023/05/12 07:02:20;;;;;;;;;;;13.50;99.90;;;;;;5093762;28;20025;-35
2023/05/12 07:04:47;;;;;;;;;;;13.40;99.90;;;;;;5094340;28;20028;-36
2023/05/12 07:07:14;;;;;;;;;;;13.50;99.90;;;;;;5079156;28;19941;-39
2023/05/12 07:09:44;;;;;;;;;;;13.50;99.90;;;;;;5103376;28;19936;-35
2023/05/12 07:12:10;;;;;;;;;;;13.50;99.90;;;;;;5096336;28;20031;-35
2023/05/12 07:14:37;;;;;;;;;;;13.50;99.90;;;;;;5102561;28;20317;-35
2023/05/12 07:17:04;;;;;;;;;;;13.50;99.90;;;;;;5115912;28;20464;-35
2023/05/12 07:19:30;;;;;;;;;;;13.60;99.90;;;;;;5103630;28;19948;-35
2023/05/12 07:21:57;;;;;;;;;;;13.60;99.90;;;;;;5097488;28;19942;-36
2023/05/12 07:24:24;;;;;;;;;;;13.70;99.90;;;;;;5102178;28;20031;-36
2023/05/12 07:26:52;;;;;;;;;;;13.70;99.90;;;;;;5097403;28;19944;-36
2023/05/12 07:29:19;;;;;;;;;;;13.70;99.90;;;;;;5086445;28;19943;-36
2023/05/12 07:31:46;;;;;;;;;;;13.70;99.90;;;;;;5095261;28;19949;-36
2023/05/12 07:34:13;;;;;;;;;;;13.80;99.90;;;;;;5083465;28;19944;-36
2023/05/12 07:36:40;;;;;;;;;;;13.80;99.90;;;;;;5097431;28;19951;-36
2023/05/12 07:39:07;;;;;;;;;;;13.90;99.90;;;;;;5080394;28;19977;-36
2023/05/12 07:41:33;;;;;;;;;;;14.00;99.90;;;;;;5096818;28;19959;-36
2023/05/12 07:44:02;;;;;;;;;;;14.00;99.90;;;;;;5108972;28;19940;-36
2023/05/12 07:46:29;;;;;;;;;;;14.10;99.90;;;;;;5102027;28;20022;-37
2023/05/12 07:48:56;;;;;;;;;;;14.20;99.90;;;;;;5100898;28;20659;-36
2023/05/12 07:51:22;;;;;;;;;;;14.30;99.90;;;;;;5096327;28;19965;-37
2023/05/12 07:53:49;;;;;;;;;;;14.40;99.90;;;;;;5100203;28;19946;-37
2023/05/12 07:56:16;;;;;;;;;;;14.40;99.90;;;;;;5103000;28;20007;-36
2023/05/12 07:58:42;;;;;;;;;;;14.40;99.90;;;;;;5119255;28;20362;-37
2023/05/12 08:01:10;;;;;;;;;;;14.40;99.90;;;;;;5110952;28;19949;-37
2023/05/12 08:03:37;;;;;;;;;;;14.50;99.90;;;;;;5102748;28;19991;-37
2023/05/12 08:06:06;;;;;;;;;;;14.50;99.90;;;;;;5109786;27;19945;-36
2023/05/12 08:08:32;;;;;;;;;;;14.60;99.90;;;;;;5071927;28;19954;-37
2023/05/12 08:10:59;;;;;;;;;;;14.60;99.90;;;;;;5092533;28;19990;-37
2023/05/12 08:13:26;;;;;;;;;;;14.70;99.90;;;;;;5075560;28;19945;-37
2023/05/12 08:15:52;;;;;;;;;;;14.70;99.90;;;;;;5110837;28;19955;-37
2023/05/12 08:18:20;;;;;;;;;;;14.80;99.90;;;;;;5078580;28;19994;-38
2023/05/12 08:20:48;;;;;;;;;;;14.80;99.90;;;;;;5093260;28;19945;-37
2023/05/12 08:23:15;;;;;;;;;;;14.90;99.90;;;;;;5109673;28;19987;-37
2023/05/12 08:25:43;;;;;;;;;;;15.00;99.90;;;;;;5095820;28;19942;-37
2023/05/12 08:28:09;;;;;;;;;;;15.00;99.90;;;;;;5092283;28;19946;-39
2023/05/12 08:30:36;;;;;;;;;;;15.10;99.90;;;;;;5109115;28;19937;-37
2023/05/12 08:33:06;;;;;;;;;;;15.20;99.90;;;;;;5098478;28;19946;-38
2023/05/12 08:35:34;;;;;;;;;;;15.20;99.90;;;;;;5090414;28;20004;-37
2023/05/12 08:38:00;;;;;;;;;;;15.30;99.90;;;;;;5097435;28;19994;-37
2023/05/12 08:40:28;;;;;;;;;;;15.40;99.90;;;;;;5112563;28;20007;-37
2023/05/12 08:42:57;;;;;;;;;;;15.40;99.90;;;;;;5112834;28;20565;-36
2023/05/12 08:45:23;;;;;;;;;;;15.50;99.90;;;;;;5098519;27;20018;-38
2023/05/12 08:47:50;;;;;;;;;;;15.50;99.90;;;;;;5093224;28;19939;-37
2023/05/12 08:50:17;;;;;;;;;;;15.60;99.90;;;;;;5113265;28;20031;-38
2023/05/12 08:52:45;;;;;;;;;;;15.50;99.90;;;;;;5113529;28;19943;-37
2023/05/12 08:55:12;;;;;;;;;;;15.60;99.90;;;;;;5111566;28;19988;-38
2023/05/12 08:57:38;;;;;;;;;;;15.70;99.90;;;;;;5100577;27;19936;-37
2023/05/12 09:00:07;;;;;;;;;;;15.80;99.90;;;;;;5101350;28;19982;-37
2023/05/12 09:02:34;;;;;;;;;;;15.90;99.90;;;;;;5082065;28;19986;-38
2023/05/12 09:05:00;;;;;;;;;;;15.90;99.90;;;;;;5109167;28;19994;-38
2023/05/12 09:07:27;;;;;;;;;;;16.00;99.90;;;;;;5099531;28;20394;-37
2023/05/12 09:09:56;;;;;;;;;;;16.20;99.90;;;;;;5104156;28;19943;-38
2023/05/12 09:12:23;;;;;;;;;;;16.30;99.90;;;;;;5092497;28;19947;-38
2023/05/12 09:14:52;;;;;;;;;;;16.50;99.90;;;;;;5094950;28;19969;-38
2023/05/12 09:17:18;;;;;;;;;;;16.60;99.90;;;;;;5112763;28;20088;-40
2023/05/12 09:19:45;;;;;;;;;;;16.80;99.90;;;;;;5110572;28;19998;-38
2023/05/12 09:22:13;;;;;;;;;;;16.90;99.90;;;;;;5104107;28;19939;-38
2023/05/12 09:24:40;;;;;;;;;;;16.90;99.90;;;;;;5102449;28;19946;-37
2023/05/12 09:27:08;;;;;;;;;;;17.10;99.90;;;;;;5112628;28;20380;-38
2023/05/12 09:29:35;;;;;;;;;;;17.20;99.90;;;;;;5093544;28;19992;-38
2023/05/12 09:32:02;;;;;;;;;;;17.40;99.90;;;;;;5103110;28;19945;-38
2023/05/12 09:34:29;;;;;;;;;;;17.50;99.90;;;;;;5105842;28;20035;-38
2023/05/12 09:36:56;;;;;;;;;;;17.70;99.90;;;;;;5080172;28;20318;-39
2023/05/12 09:39:23;;;;;;;;;;;17.80;99.90;;;;;;5092721;28;20233;-39
2023/05/12 09:41:50;;;;;;;;;;;17.90;99.90;;;;;;5101178;28;19970;-39
2023/05/12 09:44:18;;;;;;;;;;;18.10;99.90;;;;;;5077942;28;19971;-38
2023/05/12 09:46:44;;;;;;;;;;;18.30;99.90;;;;;;5085382;28;20032;-38
2023/05/12 09:49:11;;;;;;;;;;;18.30;99.90;;;;;;5107167;28;19945;-39
2023/05/12 09:51:38;;;;;;;;;;;18.50;99.90;;;;;;5084906;28;19939;-39
2023/05/12 09:54:05;;;;;;;;;;;18.50;99.90;;;;;;5094045;28;20438;-39
2023/05/12 09:56:34;;;;;;;;;;;18.60;99.90;;;;;;5111922;28;20024;-39
2023/05/12 09:59:00;;;;;;;;;;;18.70;99.90;;;;;;5111801;28;19942;-38
2023/05/12 10:01:28;;;;;;;;;;;18.80;99.90;;;;;;5089730;28;20382;-38
2023/05/12 10:03:55;;;;;;;;;;;18.80;99.90;;;;;;5098135;28;19947;-38
2023/05/12 10:06:27;;;;;;;;;;;18.90;99.90;;;;;;5103597;28;19937;-38
2023/05/12 10:08:57;;;;;;;;;;;19.00;99.90;;;;;;5105446;28;19992;-37
2023/05/12 10:11:24;;;;;;;;;;;19.10;99.90;;;;;;5080606;28;19982;-38
2023/05/12 10:13:51;;;;;;;;;;;19.40;99.90;;;;;;5104481;28;20028;-38
2023/05/12 10:16:17;;;;;;;;;;;19.70;99.90;;;;;;5098491;28;19998;-38
2023/05/12 10:18:45;;;;;;;;;;;20.00;99.90;;;;;;5105673;28;20344;-38
2023/05/12 10:21:12;;;;;;;;;;;20.40;99.90;;;;;;5095767;28;20368;-37
2023/05/12 10:23:40;;;;;;;;;;;20.60;99.90;;;;;;5105564;28;19986;-38
2023/05/12 10:26:06;;;;;;;;;;;20.80;99.90;;;;;;5108581;28;19943;-37
2023/05/12 10:28:33;;;;;;;;;;;21.00;99.90;;;;;;5112876;28;20442;-38
2023/05/12 10:30:59;;;;;;;;;;;21.10;99.90;;;;;;5087849;28;20244;-38
2023/05/12 10:33:26;;;;;;;;;;;21.10;99.90;;;;;;5111476;28;19941;-38
2023/05/12 10:35:55;;;;;;;;;;;21.20;99.90;;;;;;5102524;28;20436;-37
2023/05/12 10:38:21;;;;;;;;;;;21.20;99.90;;;;;;5088728;28;20223;-38
2023/05/12 10:40:49;;;;;;;;;;;21.40;99.90;;;;;;5089618;28;19999;-37
2023/05/12 10:43:18;;;;;;;;;;;21.50;99.90;;;;;;5102712;28;19949;-38
2023/05/12 10:45:47;;;;;;;;;;;21.60;99.90;;;;;;5099244;28;20276;-38
2023/05/12 10:48:15;;;;;;;;;;;21.80;99.90;;;;;;5101088;28;19946;-38
2023/05/12 10:50:52;;;;;;;;;;;21.90;99.90;;;;;;5109575;28;20570;-37
2023/05/12 10:53:28;;;;;;;;;;;22.00;99.90;;;;;;5094501;28;19943;-39
2023/05/12 10:55:55;;;;;;;;;;;22.10;99.90;;;;;;5089009;28;20013;-38
2023/05/12 10:58:22;;;;;;;;;;;22.20;99.90;;;;;;5106487;28;20458;-38
2023/05/12 11:00:49;;;;;;;;;;;22.30;99.90;;;;;;5080472;28;20328;-38
2023/05/12 11:03:16;;;;;;;;;;;22.50;99.90;;;;;;5102508;28;20467;-38
2023/05/12 11:05:43;;;;;;;;;;;22.60;99.90;;;;;;5095813;28;20041;-38
2023/05/12 11:08:10;;;;;;;;;;;22.60;99.90;;;;;;5084190;28;20317;-38
2023/05/12 11:10:38;;;;;;;;;;;22.60;99.90;;;;;;5091899;28;20008;-38
2023/05/12 11:13:04;;;;;;;;;;;22.60;99.90;;;;;;5098437;28;20018;-38
2023/05/12 11:15:31;;;;;;;;;;;22.70;99.90;;;;;;5103421;28;19942;-38
2023/05/12 11:17:58;;;;;;;;;;;22.80;99.90;;;;;;5109091;28;20002;-38
2023/05/12 11:20:25;;;;;;;;;;;22.90;99.90;;;;;;5126610;28;19949;-38
2023/05/12 11:22:52;;;;;;;;;;;23.10;99.90;;;;;;5108943;28;19938;-38
2023/05/12 11:25:19;;;;;;;;;;;23.30;99.90;;;;;;5092503;28;19942;-38
2023/05/12 11:27:47;;;;;;;;;;;23.40;99.90;;;;;;5103020;28;20041;-38
2023/05/12 11:30:14;;;;;;;;;;;23.50;99.90;;;;;;5107901;28;19942;-38
2023/05/12 11:32:41;;;;;;;;;;;23.70;99.90;;;;;;5087116;28;20021;-38
2023/05/12 11:35:11;;;;;;;;;;;23.90;99.90;;;;;;5117802;28;20481;-38
2023/05/12 11:37:38;;;;;;;;;;;24.00;99.90;;;;;;5111185;28;20028;-38
2023/05/12 11:40:11;;;;;;;;;;;24.20;99.90;;;;;;5112170;28;19943;-38
2023/05/12 11:42:40;;;;;;;;;;;24.50;99.90;;;;;;5093403;28;19967;-38
2023/05/12 11:45:08;;;;;;;;;;;24.60;99.90;;;;;;5084810;28;19941;-38
2023/05/12 11:47:35;;;;;;;;;;;24.60;99.90;;;;;;5104158;28;19939;-38
2023/05/12 11:50:02;;;;;;;;;;;24.60;99.90;;;;;;5103948;28;19995;-38
2023/05/12 11:52:29;;;;;;;;;;;24.60;99.90;;;;;;5111022;27;19988;-37
2023/05/12 11:54:57;;;;;;;;;;;24.40;99.90;;;;;;5087607;28;19992;-38
2023/05/12 11:57:27;;;;;;;;;;;24.30;99.90;;;;;;5105258;28;20488;-38
2023/05/12 11:59:56;;;;;;;;;;;24.30;99.90;;;;;;5103144;28;20389;-37
2023/05/12 12:02:25;;;;;;;;;;;24.30;99.60;;;;;;5091590;28;19954;-39
2023/05/12 12:04:52;;;;;;;;;;;24.30;97.90;;;;;;5096843;28;19979;-37
2023/05/12 12:07:27;;;;;;;;;;;24.40;99.90;;;;;;5099695;27;19984;-37
2023/05/12 12:09:54;;;;;;;;;;;24.30;98.30;;;;;;5110601;28;19994;-37
2023/05/12 12:12:21;;;;;;;;;;;24.30;98.60;;;;;;5088821;28;19938;-37
2023/05/12 12:14:47;;;;;;;;;;;24.30;99.90;;;;;;5111540;28;19949;-37
2023/05/12 12:17:14;;;;;;;;;;;24.20;99.40;;;;;;5110911;27;20070;-37
2023/05/12 12:19:42;;;;;;;;;;;24.30;99.90;;;;;;5086837;28;19948;-37
2023/05/12 12:22:09;;;;;;;;;;;24.40;97.30;;;;;;5110225;28;20037;-37
2023/05/12 12:24:35;;;;;;;;;;;24.50;93.10;;;;;;5083243;28;19986;-37
2023/05/12 12:27:03;;;;;;;;;;;24.60;94.50;;;;;;5095305;28;20040;-37
2023/05/12 12:29:30;;;;;;;;;;;24.60;98.70;;;;;;5077539;28;19939;-38
2023/05/12 12:31:56;;;;;;;;;;;24.70;94.00;;;;;;5077263;28;19992;-37
2023/05/12 12:34:23;;;;;;;;;;;24.80;96.70;;;;;;5125975;27;20367;-37
2023/05/12 12:36:51;;;;;;;;;;;24.90;90.00;;;;;;5097354;28;20015;-37
2023/05/12 12:39:17;;;;;;;;;;;25.10;96.80;;;;;;5115235;28;20394;-37
2023/05/12 12:41:46;;;;;;;;;;;25.30;99.30;;;;;;5097096;28;20052;-37
2023/05/12 12:44:13;;;;;;;;;;;25.50;94.40;;;;;;5083231;28;19942;-37
2023/05/12 12:46:40;;;;;;;;;;;25.60;93.50;;;;;;5077019;28;19993;-37
2023/05/12 12:49:06;;;;;;;;;;;25.70;92.80;;;;;;5076109;28;19974;-37
2023/05/12 12:51:34;;;;;;;;;;;25.80;92.50;;;;;;5094438;28;20354;-37
2023/05/12 12:54:02;;;;;;;;;;;25.70;79.40;;;;;;5094570;28;20452;-37
2023/05/12 12:56:28;;;;;;;;;;;25.60;91.70;;;;;;5076529;28;20384;-37
2023/05/12 12:58:55;;;;;;;;;;;25.60;97.60;;;;;;5098641;28;20299;-37
2023/05/12 13:01:22;;;;;;;;;;;25.80;93.30;;;;;;5076751;28;19951;-37
2023/05/12 13:03:48;;;;;;;;;;;25.90;88.10;;;;;;5088932;28;20001;-37
2023/05/12 13:06:15;;;;;;;;;;;25.90;74.10;;;;;;5096737;28;19941;-37
2023/05/12 13:08:42;;;;;;;;;;;25.90;78.60;;;;;;5103538;28;19991;-37
2023/05/12 13:11:10;;;;;;;;;;;26.00;78.70;;;;;;5076220;28;19982;-37
2023/05/12 13:13:37;;;;;;;;;;;25.90;74.00;;;;;;5094345;28;20303;-37
2023/05/12 13:16:04;;;;;;;;;;;25.70;74.10;;;;;;5093978;28;20400;-37
2023/05/12 13:18:31;;;;;;;;;;;25.60;76.50;;;;;;5099940;28;19963;-38
2023/05/12 13:20:57;;;;;;;;;;;25.70;86.80;;;;;;5099869;28;19952;-37
2023/05/12 13:23:24;;;;;;;;;;;26.00;76.60;;;;;;5110176;27;19950;-37
2023/05/12 13:25:51;;;;;;;;;;;26.20;82.00;;;;;;5093927;28;20361;-37
2023/05/12 13:28:19;;;;;;;;;;;26.40;75.40;;;;;;5097336;28;19998;-37
2023/05/12 13:30:45;;;;;;;;;;;26.50;83.30;;;;;;5096171;28;20448;-37
2023/05/12 13:33:12;;;;;;;;;;;26.40;77.50;;;;;;5112908;28;20032;-36
2023/05/12 13:35:39;;;;;;;;;;;26.40;72.40;;;;;;5097800;27;19944;-37
2023/05/12 13:38:05;;;;;;;;;;;26.30;76.30;;;;;;5079441;28;19989;-36
2023/05/12 13:40:32;;;;;;;;;;;26.20;83.50;;;;;;5093253;28;19947;-36
2023/05/12 13:42:59;;;;;;;;;;;26.00;69.20;;;;;;5058382;28;19953;-36
2023/05/12 13:45:27;;;;;;;;;;;25.80;73.00;;;;;;5065630;28;19981;-36
2023/05/12 13:47:54;;;;;;;;;;;25.60;73.30;;;;;;5053454;28;20026;-37
2023/05/12 13:50:20;;;;;;;;;;;25.50;70.90;;;;;;5064146;28;20076;-37
2023/05/12 13:52:47;;;;;;;;;;;25.40;74.10;;;;;;5059947;28;19944;-37
2023/05/12 13:55:14;;;;;;;;;;;25.30;79.50;;;;;;5052058;28;19944;-37
2023/05/12 13:57:40;;;;;;;;;;;25.30;70.20;;;;;;5059902;28;19955;-37
2023/05/12 14:00:08;;;;;;;;;;;25.30;77.60;;;;;;5054153;28;19945;-37
2023/05/12 14:02:35;;;;;;;;;;;25.30;75.60;;;;;;5060639;28;20323;-36
2023/05/12 14:05:02;;;;;;;;;;;25.20;77.90;;;;;;5058099;28;20002;-37
2023/05/12 14:07:29;;;;;;;;;;;25.20;77.00;;;;;;5059601;28;20386;-37
2023/05/12 14:09:56;;;;;;;;;;;25.10;78.20;;;;;;5053485;28;20008;-37
2023/05/12 14:12:23;;;;;;;;;;;25.10;71.90;;;;;;5064770;28;19941;-37
2023/05/12 14:14:50;;;;;;;;;;;25.00;69.20;;;;;;5053664;28;19948;-36